Time;durP1;ratioP1;P1;durP2;ratioP2;P2;SDS_P1;SDS_P2;PMS_P1;PMS_P2;Temp;Humidity;BMP_temperature;BMP_pressure;BME280_temperature;BME280_humidity;BME280_pressure;Samples;Min_cycle;Max_cycle;Signal;HPM_P1;HPM_P2
2023/04/06 00:00:49;;;;;;;10.57;5.60;;;4.70;99.90;;;;;;5054933;28;20037;-64
2023/04/06 00:03:15;;;;;;;10.30;5.80;;;4.70;99.90;;;;;;5057039;28;20044;-64
2023/04/06 00:05:41;;;;;;;8.88;5.38;;;4.60;99.90;;;;;;5060658;28;20033;-64
2023/04/06 00:08:06;;;;;;;9.75;5.82;;;4.60;99.90;;;;;;5053605;28;20145;-64
2023/04/06 00:10:32;;;;;;;7.85;5.40;;;4.50;99.90;;;;;;5053095;28;20131;-63
2023/04/06 00:12:59;;;;;;;7.47;4.90;;;4.50;99.90;;;;;;5061877;28;20044;-64
2023/04/06 00:15:27;;;;;;;9.77;5.88;;;4.50;99.90;;;;;;5061361;28;20088;-64
2023/04/06 00:17:53;;;;;;;10.23;4.93;;;4.50;99.90;;;;;;5062018;28;20098;-64
2023/04/06 00:20:19;;;;;;;8.07;5.35;;;4.50;99.90;;;;;;5073207;28;20055;-63
2023/04/06 00:22:45;;;;;;;9.35;5.82;;;4.40;99.90;;;;;;5068928;28;20413;-64
2023/04/06 00:25:11;;;;;;;8.02;5.63;;;4.40;99.90;;;;;;5054334;28;20085;-64
2023/04/06 00:27:37;;;;;;;9.02;5.40;;;4.40;99.90;;;;;;5070180;28;20441;-64
2023/04/06 00:30:07;;;;;;;9.50;5.20;;;4.40;99.90;;;;;;5067562;28;20037;-64
2023/04/06 00:32:32;;;;;;;10.73;5.68;;;4.40;99.90;;;;;;5066181;28;20051;-64
2023/04/06 00:34:58;;;;;;;8.15;5.65;;;4.30;99.90;;;;;;5057350;28;20049;-64
2023/04/06 00:37:24;;;;;;;8.30;5.47;;;4.30;99.90;;;;;;5068244;28;20080;-64
2023/04/06 00:39:51;;;;;;;10.82;5.95;;;4.20;99.90;;;;;;5068359;28;20112;-64
2023/04/06 00:42:24;;;;;;;9.20;5.65;;;4.20;99.90;;;;;;5056879;28;20041;-64
2023/04/06 00:44:54;;;;;;;9.43;5.95;;;4.20;99.90;;;;;;5056962;28;20033;-64
2023/04/06 00:47:20;;;;;;;8.55;5.47;;;4.20;99.90;;;;;;5059103;28;20040;-64
2023/04/06 00:49:45;;;;;;;9.32;5.30;;;4.10;99.90;;;;;;5060027;28;20620;-64
2023/04/06 00:52:11;;;;;;;8.20;5.45;;;4.10;99.90;;;;;;5057363;28;20088;-64
2023/04/06 00:54:36;;;;;;;9.05;5.45;;;4.10;99.90;;;;;;5057579;28;20051;-64
2023/04/06 00:57:02;;;;;;;9.45;6.05;;;4.10;99.90;;;;;;5060238;28;20084;-64
2023/04/06 00:59:28;;;;;;;8.68;5.97;;;4.10;99.90;;;;;;5057024;28;20228;-64
2023/04/06 01:01:54;;;;;;;9.68;6.00;;;4.10;99.90;;;;;;5053627;28;20398;-64
2023/04/06 01:04:22;;;;;;;9.70;6.05;;;4.00;99.90;;;;;;5066756;28;20044;-64
2023/04/06 01:06:48;;;;;;;10.43;6.30;;;4.00;99.90;;;;;;5057520;28;20048;-64
2023/04/06 01:09:14;;;;;;;13.10;5.90;;;4.00;99.90;;;;;;5056897;28;20041;-64
2023/04/06 01:11:39;;;;;;;10.23;5.80;;;4.00;99.90;;;;;;5063557;28;20051;-64
2023/04/06 01:14:05;;;;;;;9.73;5.82;;;3.90;99.90;;;;;;5060187;28;20045;-63
2023/04/06 01:16:31;;;;;;;8.48;6.22;;;3.90;99.90;;;;;;5056732;28;20052;-64
2023/04/06 01:18:57;;;;;;;10.68;6.00;;;3.90;99.90;;;;;;5054699;28;20044;-63
2023/04/06 01:21:22;;;;;;;8.70;6.00;;;3.90;99.90;;;;;;5059810;28;20044;-64
2023/04/06 01:23:48;;;;;;;10.63;5.82;;;3.80;99.90;;;;;;5065286;28;20217;-63
2023/04/06 01:26:14;;;;;;;10.45;5.88;;;3.80;99.90;;;;;;5053539;28;20418;-63
2023/04/06 01:28:39;;;;;;;9.88;5.50;;;3.90;99.90;;;;;;5062634;28;20167;-63
2023/04/06 01:31:07;;;;;;;11.68;6.57;;;3.80;99.90;;;;;;5069826;28;20041;-63
2023/04/06 01:33:33;;;;;;;8.68;5.70;;;3.80;99.90;;;;;;5062288;28;20136;-63
2023/04/06 01:35:59;;;;;;;9.27;5.85;;;3.80;99.90;;;;;;5054297;28;20100;-63
2023/04/06 01:38:25;;;;;;;10.82;6.20;;;3.80;99.90;;;;;;5062057;28;20052;-63
2023/04/06 01:40:51;;;;;;;8.77;5.63;;;3.70;99.90;;;;;;5064160;28;20051;-63
2023/04/06 01:43:16;;;;;;;10.43;6.07;;;3.70;99.90;;;;;;5064361;28;20037;-63
2023/04/06 01:45:42;;;;;;;9.43;5.82;;;3.70;99.90;;;;;;5065398;28;20041;-63
2023/04/06 01:48:07;;;;;;;9.93;5.80;;;3.70;99.90;;;;;;5064553;28;20116;-64
2023/04/06 01:50:33;;;;;;;8.50;6.03;;;3.60;99.90;;;;;;5058998;28;20063;-63
2023/04/06 01:52:59;;;;;;;10.10;6.07;;;3.60;99.90;;;;;;5067000;28;20056;-63
2023/04/06 01:55:24;;;;;;;10.05;6.15;;;3.60;99.90;;;;;;5064543;28;20124;-63
2023/04/06 01:57:50;;;;;;;10.65;6.13;;;3.60;99.90;;;;;;5062969;28;20041;-63
2023/04/06 02:00:16;;;;;;;10.02;5.95;;;3.60;99.90;;;;;;5059047;28;20056;-63
2023/04/06 02:02:41;;;;;;;9.43;5.80;;;3.50;99.90;;;;;;5067700;28;20033;-63
2023/04/06 02:05:08;;;;;;;10.65;6.80;;;3.50;99.90;;;;;;5056820;28;20040;-63
2023/04/06 02:07:33;;;;;;;11.00;6.20;;;3.50;99.90;;;;;;5057949;28;20040;-64
2023/04/06 02:09:59;;;;;;;10.40;6.25;;;3.40;99.90;;;;;;5055543;28;20134;-63
2023/04/06 02:12:25;;;;;;;10.90;7.00;;;3.40;99.90;;;;;;5066019;28;20044;-63
2023/04/06 02:14:51;;;;;;;10.30;6.72;;;3.40;99.90;;;;;;5058134;28;20043;-63
2023/04/06 02:17:17;;;;;;;9.02;6.25;;;3.40;99.90;;;;;;5074096;28;20048;-63
2023/04/06 02:19:42;;;;;;;10.98;6.97;;;3.40;99.90;;;;;;5057801;28;20047;-63
2023/04/06 02:22:08;;;;;;;10.82;6.63;;;3.40;99.90;;;;;;5071318;28;20075;-64
2023/04/06 02:24:34;;;;;;;13.93;6.75;;;3.40;99.90;;;;;;5068941;28;20464;-63
2023/04/06 02:27:00;;;;;;;10.00;6.43;;;3.40;99.90;;;;;;5063910;28;20071;-63
2023/04/06 02:29:26;;;;;;;11.00;6.57;;;3.30;99.90;;;;;;5058964;28;20460;-63
2023/04/06 02:31:51;;;;;;;10.27;7.13;;;3.30;99.90;;;;;;5061324;28;20063;-63
2023/04/06 02:34:17;;;;;;;14.23;7.63;;;3.30;99.90;;;;;;5070463;28;20052;-63
2023/04/06 02:36:46;;;;;;;10.13;6.70;;;3.30;99.90;;;;;;5058891;28;20037;-63
2023/04/06 02:39:12;;;;;;;12.27;6.30;;;3.30;99.90;;;;;;5067622;28;20491;-63
2023/04/06 02:41:38;;;;;;;11.32;7.00;;;3.20;99.90;;;;;;5069650;28;20432;-63
2023/04/06 02:44:07;;;;;;;10.30;6.97;;;3.20;99.90;;;;;;5062594;28;20040;-63
2023/04/06 02:46:32;;;;;;;12.00;6.95;;;3.10;99.90;;;;;;5065831;28;20054;-63
2023/04/06 02:49:00;;;;;;;11.40;6.93;;;3.20;99.90;;;;;;5065840;28;20218;-65
2023/04/06 02:51:26;;;;;;;9.88;6.93;;;3.10;99.90;;;;;;5064734;28;20048;-64
2023/04/06 02:53:51;;;;;;;12.30;7.30;;;3.10;99.90;;;;;;5063218;28;20129;-64
2023/04/06 02:56:17;;;;;;;11.55;7.07;;;3.10;99.90;;;;;;5055880;28;20077;-64
2023/04/06 02:58:43;;;;;;;10.57;6.93;;;3.00;99.90;;;;;;5052985;28;20052;-64
2023/04/06 03:01:08;;;;;;;13.73;6.93;;;3.00;99.90;;;;;;5054419;28;20134;-64
2023/04/06 03:03:34;;;;;;;10.25;6.78;;;2.90;99.90;;;;;;5056458;28;20558;-65
2023/04/06 03:06:00;;;;;;;9.98;6.80;;;2.90;99.90;;;;;;5063845;28;20369;-63
2023/04/06 03:08:25;;;;;;;10.75;6.60;;;2.90;99.90;;;;;;5062904;28;20120;-64
2023/04/06 03:10:51;;;;;;;10.02;6.80;;;2.80;99.90;;;;;;5057526;28;20068;-64
2023/04/06 03:13:16;;;;;;;11.70;6.95;;;2.80;99.90;;;;;;5061220;28;20044;-64
2023/04/06 03:15:42;;;;;;;9.85;6.75;;;2.80;99.90;;;;;;5053215;28;20047;-64
2023/04/06 03:18:08;;;;;;;12.93;7.30;;;2.80;99.90;;;;;;5056687;28;20098;-64
2023/04/06 03:20:33;;;;;;;10.88;7.10;;;2.80;99.90;;;;;;5070469;28;20045;-64
2023/04/06 03:22:59;;;;;;;11.35;6.82;;;2.80;99.90;;;;;;5062495;28;20055;-64
2023/04/06 03:25:25;;;;;;;11.38;7.30;;;2.70;99.90;;;;;;5055048;28;20049;-64
2023/04/06 03:27:50;;;;;;;12.05;7.53;;;2.70;99.90;;;;;;5055057;28;20120;-64
2023/04/06 03:30:17;;;;;;;11.57;7.35;;;2.70;99.90;;;;;;5062277;28;20045;-64
2023/04/06 03:32:43;;;;;;;12.75;7.75;;;2.60;99.90;;;;;;5067359;28;20075;-64
2023/04/06 03:35:09;;;;;;;14.65;8.00;;;2.60;99.90;;;;;;5061561;28;20131;-64
2023/04/06 03:37:35;;;;;;;9.43;7.00;;;2.70;99.90;;;;;;5055268;28;20116;-64
2023/04/06 03:40:01;;;;;;;10.82;7.10;;;2.70;99.90;;;;;;5063109;28;20067;-64
2023/04/06 03:42:26;;;;;;;10.00;7.10;;;2.70;99.90;;;;;;5061128;28;20121;-64
2023/04/06 03:44:52;;;;;;;11.50;7.28;;;2.60;99.90;;;;;;5058083;28;20114;-65
2023/04/06 03:47:18;;;;;;;11.60;7.82;;;2.70;99.90;;;;;;5057230;28;20079;-64
2023/04/06 03:49:43;;;;;;;10.77;7.20;;;2.60;99.90;;;;;;5059830;28;20076;-64
2023/04/06 03:52:09;;;;;;;11.30;7.55;;;2.60;99.90;;;;;;5066332;28;20072;-64
2023/04/06 03:54:35;;;;;;;11.25;7.75;;;2.60;99.90;;;;;;5060708;28;20044;-64
2023/04/06 03:57:00;;;;;;;11.90;7.47;;;2.60;99.90;;;;;;5055683;28;20048;-64
2023/04/06 03:59:26;;;;;;;12.57;7.45;;;2.60;99.90;;;;;;5048177;28;20499;-64
2023/04/06 04:01:52;;;;;;;12.32;7.57;;;2.70;99.90;;;;;;5052955;28;20155;-64
2023/04/06 04:04:17;;;;;;;11.50;7.35;;;2.60;99.90;;;;;;5045020;28;20128;-64
2023/04/06 04:06:43;;;;;;;11.70;7.65;;;2.60;99.90;;;;;;5043572;28;20419;-64
2023/04/06 04:09:08;;;;;;;11.43;7.07;;;2.60;99.90;;;;;;5045447;28;20490;-64
2023/04/06 04:11:34;;;;;;;13.30;7.43;;;2.60;99.90;;;;;;5051088;28;20101;-64
2023/04/06 04:14:00;;;;;;;12.57;7.72;;;2.60;99.90;;;;;;5050833;28;20092;-64
2023/04/06 04:16:25;;;;;;;11.68;7.45;;;2.60;99.90;;;;;;5060144;28;20041;-65
2023/04/06 04:18:51;;;;;;;10.63;7.80;;;2.60;99.90;;;;;;5057900;28;20040;-64
2023/04/06 04:21:16;;;;;;;10.18;7.55;;;2.60;99.90;;;;;;5059601;28;20056;-64
2023/04/06 04:23:42;;;;;;;12.45;8.13;;;2.50;99.90;;;;;;5054357;28;20492;-64
2023/04/06 04:26:08;;;;;;;12.32;8.52;;;2.50;99.90;;;;;;5065317;28;20040;-64
2023/04/06 04:28:33;;;;;;;10.88;7.50;;;2.50;99.90;;;;;;5052514;28;20086;-64
2023/04/06 04:30:59;;;;;;;13.25;8.65;;;2.40;99.90;;;;;;5061951;28;20036;-66
2023/04/06 04:33:25;;;;;;;12.40;7.85;;;2.40;99.90;;;;;;5063873;28;20037;-65
2023/04/06 04:35:50;;;;;;;13.52;8.38;;;2.40;99.90;;;;;;5066475;28;20040;-64
2023/04/06 04:38:16;;;;;;;11.73;7.15;;;2.40;99.90;;;;;;5060516;28;20068;-63
2023/04/06 04:40:41;;;;;;;11.82;7.70;;;2.40;99.90;;;;;;5065163;28;20068;-63
2023/04/06 04:43:07;;;;;;;12.93;8.13;;;2.40;99.90;;;;;;5062497;28;20055;-64
2023/04/06 04:45:32;;;;;;;14.60;8.60;;;2.40;99.90;;;;;;5066448;28;20048;-63
2023/04/06 04:47:58;;;;;;;13.02;8.40;;;2.50;99.90;;;;;;5068419;28;20374;-63
2023/04/06 04:50:24;;;;;;;13.13;8.50;;;2.40;99.90;;;;;;5066726;28;20048;-64
2023/04/06 04:52:49;;;;;;;13.57;8.27;;;2.40;99.90;;;;;;5064362;28;20080;-64
2023/04/06 04:55:15;;;;;;;13.07;8.23;;;2.40;99.90;;;;;;5063360;28;20440;-63
2023/04/06 04:57:41;;;;;;;12.77;8.15;;;2.40;99.90;;;;;;5058728;28;20036;-64
2023/04/06 05:00:07;;;;;;;12.73;7.75;;;2.40;99.90;;;;;;5065230;28;20041;-64
2023/04/06 05:02:32;;;;;;;15.50;9.02;;;2.40;99.90;;;;;;5060353;28;20148;-64
2023/04/06 05:04:58;;;;;;;12.30;8.32;;;2.50;99.90;;;;;;5064950;28;20171;-64
2023/04/06 05:07:23;;;;;;;14.15;8.85;;;2.40;99.90;;;;;;5070178;28;20052;-65
2023/04/06 05:09:49;;;;;;;12.95;7.75;;;2.50;99.90;;;;;;5067802;28;20029;-63
2023/04/06 05:12:15;;;;;;;14.95;8.75;;;2.40;99.90;;;;;;5079445;28;20693;-64
2023/04/06 05:14:41;;;;;;;13.98;9.20;;;2.50;99.90;;;;;;5069174;28;20036;-64
2023/04/06 05:17:07;;;;;;;13.77;8.75;;;2.50;99.90;;;;;;5071733;28;20048;-64
2023/04/06 05:19:32;;;;;;;13.90;9.05;;;2.50;99.90;;;;;;5070096;28;20124;-64
2023/04/06 05:21:58;;;;;;;12.27;8.65;;;2.50;99.90;;;;;;5065291;28;20048;-64
2023/04/06 05:24:23;;;;;;;13.48;8.40;;;2.60;99.90;;;;;;5068848;28;20144;-64
2023/04/06 05:26:49;;;;;;;14.60;8.77;;;2.60;99.90;;;;;;5072133;28;20085;-64
2023/04/06 05:29:16;;;;;;;13.95;8.95;;;2.60;99.90;;;;;;5067149;28;20064;-65
2023/04/06 05:31:42;;;;;;;13.77;8.80;;;2.60;99.90;;;;;;5061955;28;20097;-64
2023/04/06 05:34:09;;;;;;;13.85;8.80;;;2.70;99.90;;;;;;5072780;28;20048;-64
2023/04/06 05:36:35;;;;;;;14.00;8.43;;;3.00;99.90;;;;;;5071010;28;20040;-64
2023/04/06 05:39:00;;;;;;;13.73;8.88;;;3.00;99.90;;;;;;5054157;28;20037;-64
2023/04/06 05:41:26;;;;;;;14.30;8.63;;;3.00;99.90;;;;;;5066840;28;20384;-65
2023/04/06 05:43:51;;;;;;;10.20;7.72;;;3.00;99.90;;;;;;5069280;28;20399;-65
2023/04/06 05:46:20;;;;;;;14.63;8.52;;;3.00;99.90;;;;;;5064143;28;20083;-65
2023/04/06 05:48:46;;;;;;;13.38;8.25;;;3.00;99.90;;;;;;5068963;28;20468;-64
2023/04/06 05:51:11;;;;;;;13.25;8.63;;;3.10;99.90;;;;;;5070216;28;20442;-65
2023/04/06 05:53:37;;;;;;;17.50;8.63;;;3.10;99.90;;;;;;5053966;28;20523;-65
2023/04/06 05:56:03;;;;;;;14.48;8.68;;;3.10;99.90;;;;;;5073227;28;20036;-65
2023/04/06 05:58:29;;;;;;;13.30;8.68;;;3.20;99.90;;;;;;5069445;28;20441;-65
2023/04/06 06:01:02;;;;;;;13.85;9.13;;;3.20;99.90;;;;;;5067025;28;20051;-66
2023/04/06 06:03:29;;;;;;;14.25;9.43;;;3.20;99.90;;;;;;5068199;28;20097;-65
2023/04/06 06:06:00;;;;;;;14.80;9.15;;;3.30;99.90;;;;;;5070057;28;20108;-65
2023/04/06 06:08:26;;;;;;;16.40;8.88;;;3.30;99.90;;;;;;5065378;28;20178;-66
2023/04/06 06:10:51;;;;;;;13.05;8.88;;;3.40;99.90;;;;;;5067209;28;20124;-65
2023/04/06 06:13:17;;;;;;;15.88;9.38;;;3.40;99.90;;;;;;5059078;28;20353;-66
2023/04/06 06:15:42;;;;;;;13.45;9.32;;;3.40;99.90;;;;;;5063382;28;20128;-65
2023/04/06 06:18:08;;;;;;;14.43;9.30;;;3.50;99.90;;;;;;5064197;28;20056;-64
2023/04/06 06:20:33;;;;;;;14.05;8.85;;;3.50;99.90;;;;;;5071608;28;20121;-64
2023/04/06 06:22:59;;;;;;;13.93;9.82;;;3.60;99.90;;;;;;5064047;28;20116;-64
2023/04/06 06:25:25;;;;;;;14.80;8.63;;;3.70;99.90;;;;;;5061042;28;20418;-64
2023/04/06 06:27:50;;;;;;;15.95;9.52;;;3.70;99.90;;;;;;5063539;28;20076;-64
2023/04/06 06:30:16;;;;;;;14.38;9.13;;;3.80;99.90;;;;;;5065311;28;20037;-64
2023/04/06 06:32:41;;;;;;;14.43;9.18;;;3.90;99.90;;;;;;5058890;28;20098;-64
2023/04/06 06:35:07;;;;;;;12.55;9.40;;;4.00;99.90;;;;;;5062219;28;20090;-64
2023/04/06 06:37:33;;;;;;;17.55;9.70;;;4.00;99.90;;;;;;5066167;28;20037;-64
2023/04/06 06:39:59;;;;;;;14.48;9.90;;;4.10;99.90;;;;;;5065651;28;20564;-64
2023/04/06 06:42:24;;;;;;;13.45;9.07;;;4.10;99.90;;;;;;5070555;28;20119;-64
2023/04/06 06:44:50;;;;;;;14.88;9.18;;;4.20;99.90;;;;;;5049893;28;20131;-64
2023/04/06 06:47:16;;;;;;;15.18;9.63;;;4.30;99.90;;;;;;5069147;28;20037;-64
2023/04/06 06:49:41;;;;;;;16.90;10.27;;;4.30;99.90;;;;;;5067328;28;20041;-64
2023/04/06 06:52:07;;;;;;;13.25;9.55;;;4.40;99.90;;;;;;5071315;28;20055;-64
2023/04/06 06:54:33;;;;;;;14.48;9.30;;;4.50;99.90;;;;;;5069458;28;20040;-64
2023/04/06 06:57:00;;;;;;;17.67;9.88;;;4.60;99.90;;;;;;5058504;28;20048;-65
2023/04/06 06:59:25;;;;;;;15.27;9.63;;;4.60;99.90;;;;;;5071487;28;20049;-65
2023/04/06 07:01:51;;;;;;;14.35;9.93;;;4.80;99.90;;;;;;5071377;28;20173;-64
2023/04/06 07:04:16;;;;;;;15.57;9.50;;;4.80;99.90;;;;;;5070472;28;20052;-65
2023/04/06 07:06:42;;;;;;;17.00;10.73;;;4.90;99.90;;;;;;5067697;28;20041;-65
2023/04/06 07:09:07;;;;;;;14.40;10.18;;;5.00;99.90;;;;;;5063203;28;20071;-64
2023/04/06 07:11:33;;;;;;;14.70;10.00;;;5.10;99.90;;;;;;5061160;28;20037;-64
2023/04/06 07:13:59;;;;;;;15.65;10.95;;;5.20;99.90;;;;;;5068779;28;20048;-65
2023/04/06 07:16:24;;;;;;;16.52;10.60;;;5.40;99.90;;;;;;5065430;28;20119;-65
2023/04/06 07:18:50;;;;;;;16.42;10.57;;;5.50;99.90;;;;;;5068342;28;20159;-64
2023/04/06 07:21:16;;;;;;;16.27;10.55;;;5.60;99.90;;;;;;5062013;28;20041;-65
2023/04/06 07:23:42;;;;;;;14.98;9.50;;;5.80;99.90;;;;;;5065605;28;20049;-64
2023/04/06 07:26:07;;;;;;;16.98;10.48;;;6.00;99.90;;;;;;5069613;28;20079;-65
2023/04/06 07:28:33;;;;;;;14.35;9.57;;;6.30;99.90;;;;;;5066710;28;20033;-64
2023/04/06 07:30:58;;;;;;;15.27;9.45;;;6.50;99.90;;;;;;5065621;28;20052;-64
2023/04/06 07:33:24;;;;;;;14.00;9.75;;;6.70;99.90;;;;;;5067014;28;20139;-64
2023/04/06 07:35:51;;;;;;;15.45;10.57;;;6.80;99.90;;;;;;5070869;28;20162;-64
2023/04/06 07:38:16;;;;;;;14.60;9.35;;;6.90;99.90;;;;;;5061009;28;20045;-64
2023/04/06 07:40:42;;;;;;;15.10;10.02;;;6.90;99.90;;;;;;5057120;28;20081;-65
2023/04/06 07:43:08;;;;;;;15.05;9.45;;;7.00;99.90;;;;;;5065581;28;20502;-65
2023/04/06 07:45:33;;;;;;;15.52;9.95;;;7.20;99.90;;;;;;5055373;28;20421;-64
2023/04/06 07:47:59;;;;;;;14.07;9.02;;;7.20;99.90;;;;;;5057440;28;20072;-64
2023/04/06 07:50:25;;;;;;;14.25;10.02;;;7.30;99.90;;;;;;5048285;28;20492;-64
2023/04/06 07:52:50;;;;;;;13.88;9.10;;;7.40;99.90;;;;;;5059979;28;20452;-64
2023/04/06 07:55:16;;;;;;;13.40;9.50;;;7.40;99.90;;;;;;5058270;28;20044;-64
2023/04/06 07:57:41;;;;;;;16.50;10.75;;;7.40;99.90;;;;;;5050158;28;20089;-64
2023/04/06 08:00:09;;;;;;;15.82;10.13;;;7.40;99.90;;;;;;5054156;28;20044;-64
2023/04/06 08:02:35;;;;;;;14.75;9.88;;;7.40;99.90;;;;;;5057183;28;20447;-64
2023/04/06 08:05:00;;;;;;;16.25;10.80;;;7.40;99.90;;;;;;5050386;28;20037;-64
2023/04/06 08:07:26;;;;;;;14.48;10.38;;;7.40;99.90;;;;;;5054593;28;20542;-64
2023/04/06 08:09:52;;;;;;;14.20;9.88;;;7.50;99.90;;;;;;5047906;28;20496;-64
2023/04/06 08:12:17;;;;;;;14.52;10.65;;;7.60;99.90;;;;;;5050357;28;20056;-64
2023/04/06 08:14:43;;;;;;;15.93;10.27;;;7.70;99.90;;;;;;5051363;28;20077;-64
2023/04/06 08:17:09;;;;;;;15.80;10.48;;;7.80;99.90;;;;;;5054991;28;20071;-64
2023/04/06 08:19:35;;;;;;;14.73;9.43;;;8.00;99.90;;;;;;5062404;28;20048;-64
2023/04/06 08:22:00;;;;;;;16.83;11.05;;;8.10;99.90;;;;;;5069809;28;20041;-64
2023/04/06 08:24:26;;;;;;;16.90;10.90;;;8.30;99.90;;;;;;5059273;28;20037;-64
2023/04/06 08:26:53;;;;;;;16.30;10.73;;;8.40;99.90;;;;;;5061036;28;20037;-63
2023/04/06 08:29:18;;;;;;;15.57;10.52;;;8.60;99.90;;;;;;5060253;28;20213;-64
2023/04/06 08:31:44;;;;;;;17.20;11.00;;;8.70;99.90;;;;;;5068301;28;20040;-64
2023/04/06 08:34:10;;;;;;;17.70;10.65;;;8.80;99.90;;;;;;5068966;28;20045;-64
2023/04/06 08:36:35;;;;;;;16.25;11.32;;;8.90;99.90;;;;;;5064196;28;20069;-63
2023/04/06 08:39:01;;;;;;;14.80;10.25;;;9.00;99.90;;;;;;5063898;28;20152;-64
2023/04/06 08:41:27;;;;;;;17.85;11.68;;;9.20;99.90;;;;;;5056373;28;20040;-64
2023/04/06 08:43:57;;;;;;;14.95;9.95;;;9.30;99.90;;;;;;5059006;28;20451;-64
2023/04/06 08:46:30;;;;;;;17.88;10.88;;;9.50;99.90;;;;;;5058885;28;20115;-64
2023/04/06 08:49:00;;;;;;;17.70;11.27;;;9.60;99.90;;;;;;5069438;28;20051;-64
2023/04/06 08:51:27;;;;;;;15.23;10.43;;;9.70;99.90;;;;;;5066182;28;20064;-64
2023/04/06 08:53:55;;;;;;;16.80;11.38;;;9.90;99.90;;;;;;5065379;28;20392;-64
2023/04/06 08:56:22;;;;;;;15.30;11.43;;;10.00;99.90;;;;;;5063106;28;20132;-65
2023/04/06 08:58:48;;;;;;;16.23;11.07;;;10.00;99.90;;;;;;5065724;28;20041;-64
2023/04/06 09:01:16;;;;;;;17.75;11.90;;;10.00;99.90;;;;;;5066323;28;20070;-64
2023/04/06 09:03:42;;;;;;;17.17;12.15;;;10.20;99.90;;;;;;5068040;28;20140;-64
2023/04/06 09:06:10;;;;;;;17.02;11.85;;;10.40;99.90;;;;;;5064157;28;20120;-64
2023/04/06 09:08:37;;;;;;;18.88;12.23;;;10.50;99.90;;;;;;5067810;28;20479;-64
2023/04/06 09:11:03;;;;;;;19.50;12.32;;;10.70;99.90;;;;;;5068472;28;20040;-64
2023/04/06 09:13:29;;;;;;;19.58;12.93;;;10.80;99.90;;;;;;5061800;28;20135;-64
2023/04/06 09:16:03;;;;;;;22.25;13.60;;;11.00;99.90;;;;;;5069240;28;20044;-64
2023/04/06 09:18:33;;;;;;;20.77;12.52;;;11.10;99.90;;;;;;5067533;28;20083;-66
2023/04/06 09:21:02;;;;;;;18.52;12.73;;;11.20;99.90;;;;;;5065867;28;20162;-64
2023/04/06 09:23:28;;;;;;;22.08;13.63;;;11.30;99.90;;;;;;5069079;28;20048;-64
2023/04/06 09:26:09;;;;;;;20.08;13.18;;;11.40;99.90;;;;;;5061917;28;20101;-65
2023/04/06 09:28:45;;;;;;;15.70;12.05;;;11.40;99.90;;;;;;5061717;28;20203;-65
2023/04/06 09:31:15;;;;;;;21.80;13.40;;;11.40;99.90;;;;;;5064232;28;20053;-64
2023/04/06 09:33:45;;;;;;;19.30;13.15;;;11.40;99.90;;;;;;5053984;28;20049;-65
2023/04/06 09:36:11;;;;;;;20.75;13.85;;;11.40;99.90;;;;;;5051264;28;20229;-65
2023/04/06 09:38:38;;;;;;;19.00;13.02;;;11.40;99.90;;;;;;5054486;28;20511;-65
2023/04/06 09:41:04;;;;;;;19.30;13.45;;;11.30;99.90;;;;;;5057254;28;20055;-65
2023/04/06 09:43:30;;;;;;;20.27;13.52;;;11.30;99.50;;;;;;5048919;28;21286;-65
2023/04/06 09:45:57;;;;;;;19.98;13.45;;;11.30;99.70;;;;;;5051026;28;20148;-65
2023/04/06 09:48:25;;;;;;;20.13;13.25;;;11.30;99.90;;;;;;5051181;28;20048;-64
2023/04/06 09:50:56;;;;;;;21.08;13.77;;;11.40;99.70;;;;;;5056688;28;20040;-64
2023/04/06 09:53:24;;;;;;;19.95;14.05;;;11.40;99.90;;;;;;5072330;28;20055;-64
2023/04/06 09:55:55;;;;;;;21.55;13.65;;;11.40;99.90;;;;;;5071512;28;20128;-64
2023/04/06 09:58:26;;;;;;;19.42;13.38;;;11.50;99.90;;;;;;5069701;28;20108;-64
2023/04/06 10:01:01;;;;;;;21.95;13.85;;;11.60;99.90;;;;;;5061247;28;20091;-64
2023/04/06 10:03:37;;;;;;;20.67;14.60;;;11.60;99.40;;;;;;5060135;28;20047;-64
2023/04/06 10:06:14;;;;;;;22.50;13.77;;;11.70;98.30;;;;;;5056818;28;20041;-63
2023/04/06 10:08:41;;;;;;;23.05;14.75;;;11.70;98.40;;;;;;5057811;28;20053;-63
2023/04/06 10:11:08;;;;;;;23.67;14.48;;;11.80;98.70;;;;;;5056214;28;20122;-63
2023/04/06 10:13:34;;;;;;;22.05;13.15;;;11.90;99.00;;;;;;5051971;28;20443;-63
2023/04/06 10:16:01;;;;;;;19.80;13.73;;;12.00;98.80;;;;;;5056875;28;20051;-63
2023/04/06 10:18:27;;;;;;;20.98;13.70;;;12.10;98.70;;;;;;5067081;28;20052;-63
2023/04/06 10:21:06;;;;;;;22.67;14.25;;;12.20;97.90;;;;;;5070003;28;20072;-63
2023/04/06 10:23:53;;;;;;;22.48;14.73;;;12.40;97.00;;;;;;5067999;28;20036;-64
2023/04/06 10:26:22;;;;;;;17.90;13.45;;;12.50;95.90;;;;;;5065584;28;20044;-64
2023/04/06 10:28:49;;;;;;;22.80;14.10;;;12.50;94.40;;;;;;5071390;28;20367;-64
2023/04/06 10:31:15;;;;;;;21.42;14.65;;;12.70;95.00;;;;;;5063052;28;20045;-64
2023/04/06 10:33:41;;;;;;;20.08;13.95;;;12.80;92.50;;;;;;5068436;28;20135;-63
2023/04/06 10:36:10;;;;;;;24.90;14.35;;;13.00;92.20;;;;;;5066512;28;20210;-66
2023/04/06 10:38:40;;;;;;;21.73;14.35;;;13.10;91.20;;;;;;5066902;28;20083;-66
2023/04/06 10:41:10;;;;;;;22.15;14.63;;;13.10;90.60;;;;;;5067412;28;20051;-66
2023/04/06 10:43:40;;;;;;;21.95;14.73;;;13.20;91.50;;;;;;5072119;28;20051;-67
2023/04/06 10:46:08;;;;;;;21.90;14.63;;;13.30;91.20;;;;;;5065791;28;20032;-67
2023/04/06 10:48:42;;;;;;;20.65;14.38;;;13.30;90.10;;;;;;5070264;28;20520;-66
2023/04/06 10:51:15;;;;;;;21.25;13.77;;;13.30;89.00;;;;;;5067052;28;20373;-66
2023/04/06 10:53:43;;;;;;;21.40;13.60;;;13.30;87.10;;;;;;5070200;28;20539;-66
2023/04/06 10:56:14;;;;;;;21.48;14.02;;;13.30;86.30;;;;;;5063574;28;20524;-66
2023/04/06 10:58:50;;;;;;;25.95;15.40;;;13.40;88.30;;;;;;5058505;28;20178;-66
2023/04/06 11:01:17;;;;;;;22.85;14.25;;;13.40;86.70;;;;;;5063888;28;20116;-64
2023/04/06 11:03:54;;;;;;;21.17;14.63;;;13.50;87.50;;;;;;5070333;28;20117;-65
2023/04/06 11:06:26;;;;;;;22.60;15.00;;;13.60;86.70;;;;;;5058969;28;20090;-65
2023/04/06 11:08:53;;;;;;;22.23;14.68;;;13.70;87.00;;;;;;5064851;28;20037;-65
2023/04/06 11:11:20;;;;;;;20.30;13.55;;;13.70;86.10;;;;;;5065120;28;20517;-65
2023/04/06 11:13:50;;;;;;;23.77;14.85;;;13.70;84.50;;;;;;5065113;28;20480;-65
2023/04/06 11:16:20;;;;;;;25.15;14.82;;;13.70;83.10;;;;;;5065269;28;20045;-64
2023/04/06 11:19:02;;;;;;;21.20;14.55;;;13.80;85.60;;;;;;5073321;28;20694;-65
2023/04/06 11:21:43;;;;;;;20.48;14.02;;;13.70;79.40;;;;;;5068683;28;20036;-65
2023/04/06 11:24:10;;;;;;;20.23;14.25;;;13.70;83.00;;;;;;5066137;28;20036;-65
2023/04/06 11:26:48;;;;;;;22.65;14.98;;;13.80;83.70;;;;;;5068210;28;20072;-64
2023/04/06 11:29:16;;;;;;;21.10;14.32;;;13.80;84.40;;;;;;5071314;28;20349;-64
2023/04/06 11:31:50;;;;;;;21.83;13.85;;;13.70;83.60;;;;;;5065688;28;20138;-65
2023/04/06 11:34:18;;;;;;;19.23;13.53;;;13.70;81.20;;;;;;5068562;28;20045;-65
2023/04/06 11:36:45;;;;;;;21.20;14.05;;;13.80;83.80;;;;;;5070727;28;20310;-65
2023/04/06 11:39:19;;;;;;;21.35;14.02;;;13.80;84.10;;;;;;5069141;28;20052;-65
2023/04/06 11:42:04;;;;;;;22.65;14.80;;;13.80;84.50;;;;;;5064056;28;20136;-66
2023/04/06 11:44:32;;;;;;;21.83;14.32;;;13.80;84.70;;;;;;5069538;28;20040;-65
2023/04/06 11:46:58;;;;;;;22.05;13.80;;;13.80;84.90;;;;;;5060130;28;20057;-66
2023/04/06 11:49:28;;;;;;;21.58;13.30;;;13.80;83.70;;;;;;5064340;28;20048;-66
2023/04/06 11:51:54;;;;;;;21.35;13.43;;;13.70;82.40;;;;;;5067499;28;20362;-65
2023/04/06 11:54:37;;;;;;;20.27;13.70;;;13.70;83.60;;;;;;5060339;28;20178;-66
2023/04/06 11:57:03;;;;;;;19.23;12.48;;;13.80;85.50;;;;;;5068664;28;20051;-65
2023/04/06 11:59:31;;;;;;;22.27;14.80;;;13.80;85.50;;;;;;5071901;28;20040;-64
2023/04/06 12:01:57;;;;;;;23.35;14.50;;;13.90;86.20;;;;;;5075613;28;20044;-64
2023/04/06 12:04:23;;;;;;;23.00;14.98;;;13.90;85.20;;;;;;5071394;28;20033;-64
2023/04/06 12:06:49;;;;;;;24.02;14.40;;;13.90;85.30;;;;;;5070114;28;20410;-65
2023/04/06 12:09:17;;;;;;;20.58;14.10;;;13.80;85.10;;;;;;5073343;28;20044;-64
2023/04/06 12:11:42;;;;;;;22.17;14.32;;;13.80;86.10;;;;;;5060498;28;20333;-64
2023/04/06 12:14:08;;;;;;;22.70;14.10;;;13.80;86.30;;;;;;5068062;28;20098;-63
2023/04/06 12:16:34;;;;;;;19.60;13.23;;;13.90;87.50;;;;;;5066984;28;20515;-64
2023/04/06 12:19:01;;;;;;;19.05;13.23;;;13.80;85.70;;;;;;5071893;28;20063;-64
2023/04/06 12:21:31;;;;;;;20.73;12.90;;;13.80;85.00;;;;;;5058787;28;20040;-65
2023/04/06 12:23:57;;;;;;;21.90;14.20;;;13.70;83.50;;;;;;5069923;28;20112;-65
2023/04/06 12:26:23;;;;;;;22.48;14.02;;;13.70;84.90;;;;;;5062971;28;20496;-65
2023/04/06 12:28:48;;;;;;;21.88;13.63;;;13.70;86.10;;;;;;5069854;28;20048;-65
2023/04/06 12:31:18;;;;;;;20.63;13.80;;;13.80;86.90;;;;;;5073503;28;20380;-65
2023/04/06 12:33:46;;;;;;;21.00;13.48;;;13.90;87.80;;;;;;5064902;28;20349;-65
2023/04/06 12:36:13;;;;;;;18.83;12.70;;;13.90;89.50;;;;;;5071447;28;20110;-65
2023/04/06 12:38:40;;;;;;;18.98;11.48;;;13.90;89.80;;;;;;5069264;28;20056;-65